Time;durP1;ratioP1;P1;durP2;ratioP2;P2;SDS_P1;SDS_P2;PMS_P1;PMS_P2;Temp;Humidity;BMP_temperature;BMP_pressure;BME280_temperature;BME280_humidity;BME280_pressure;Samples;Min_cycle;Max_cycle;Signal;HPM_P1;HPM_P2
2023/06/26 00:01:34;;;;;;;30.23;27.60;;;18.30;99.90;;;;;;4978695;28;20687;-76
2023/06/26 00:04:01;;;;;;;30.63;28.00;;;18.30;99.90;;;;;;4995050;28;20045;-76
2023/06/26 00:06:28;;;;;;;29.38;26.98;;;18.30;99.90;;;;;;4987256;28;20073;-76
2023/06/26 00:08:56;;;;;;;28.40;25.95;;;18.40;99.90;;;;;;4991091;28;20042;-77
2023/06/26 00:11:23;;;;;;;26.65;24.65;;;18.30;99.90;;;;;;4991658;28;20038;-76
2023/06/26 00:13:50;;;;;;;28.23;25.95;;;18.40;99.90;;;;;;4979439;28;20042;-76
2023/06/26 00:16:17;;;;;;;25.95;24.15;;;18.40;99.90;;;;;;4994849;28;20042;-76
2023/06/26 00:18:43;;;;;;;26.73;24.65;;;18.30;99.90;;;;;;4995773;28;20504;-76
2023/06/26 00:21:10;;;;;;;26.52;24.52;;;18.30;99.90;;;;;;4987061;28;20105;-76
2023/06/26 00:23:37;;;;;;;27.80;25.67;;;18.30;99.90;;;;;;4995653;28;20599;-76
2023/06/26 00:26:06;;;;;;;27.48;25.45;;;18.30;99.90;;;;;;4989713;28;20046;-76
2023/06/26 00:28:33;;;;;;;27.67;25.38;;;18.30;99.90;;;;;;4994739;28;20046;-76
2023/06/26 00:30:59;;;;;;;27.63;25.45;;;18.30;99.90;;;;;;4992060;28;20062;-76
2023/06/26 00:33:28;;;;;;;26.77;24.80;;;18.10;99.90;;;;;;4989649;28;20088;-76
2023/06/26 00:35:56;;;;;;;27.42;25.33;;;18.00;99.90;;;;;;4976366;28;20042;-76
2023/06/26 00:38:23;;;;;;;28.02;25.98;;;17.90;99.90;;;;;;4988441;28;20061;-77
2023/06/26 00:40:50;;;;;;;28.10;26.00;;;17.90;99.90;;;;;;4994625;28;20108;-77
2023/06/26 00:43:17;;;;;;;27.98;25.77;;;17.90;99.90;;;;;;4993015;28;20129;-76
2023/06/26 00:45:44;;;;;;;29.55;27.05;;;17.90;99.90;;;;;;4987948;28;20042;-76
2023/06/26 00:48:14;;;;;;;28.30;26.15;;;17.90;99.90;;;;;;4980502;28;20095;-77
2023/06/26 00:50:43;;;;;;;27.92;25.85;;;18.00;99.90;;;;;;4991517;28;20303;-76
2023/06/26 00:53:11;;;;;;;29.23;26.90;;;17.90;99.90;;;;;;4998247;28;20099;-76
2023/06/26 00:55:38;;;;;;;27.85;25.83;;;18.00;99.90;;;;;;4990141;28;20041;-76
2023/06/26 00:58:05;;;;;;;26.80;24.75;;;17.80;99.90;;;;;;4986948;28;20089;-76
2023/06/26 01:00:32;;;;;;;28.88;26.58;;;17.70;99.90;;;;;;4993843;28;22967;-77
2023/06/26 01:02:59;;;;;;;27.80;25.58;;;17.80;99.90;;;;;;4993868;28;20455;-76
2023/06/26 01:05:28;;;;;;;28.15;25.83;;;17.90;99.90;;;;;;4988707;28;20096;-77
2023/06/26 01:07:57;;;;;;;27.75;25.52;;;17.70;99.90;;;;;;4992696;28;20047;-76
2023/06/26 01:10:27;;;;;;;28.23;25.92;;;17.80;99.90;;;;;;4989758;28;20138;-76
2023/06/26 01:12:54;;;;;;;27.60;25.38;;;17.70;99.90;;;;;;4974984;28;20512;-76
2023/06/26 01:15:21;;;;;;;27.65;24.95;;;17.70;99.90;;;;;;4992497;28;21889;-76
2023/06/26 01:17:51;;;;;;;26.50;24.45;;;17.60;99.90;;;;;;4993368;28;20050;-77
2023/06/26 01:20:20;;;;;;;26.55;24.55;;;17.60;99.90;;;;;;4993777;28;20061;-76
2023/06/26 01:23:15;;;;;;;27.80;25.55;;;17.50;99.90;;;;;;4992389;28;20637;-76
2023/06/26 01:26:08;;;;;;;27.17;25.08;;;17.40;99.90;;;;;;4993458;28;20042;-76
2023/06/26 01:28:40;;;;;;;26.13;24.13;;;17.30;99.90;;;;;;4994817;28;20073;-77
2023/06/26 01:31:08;;;;;;;26.17;24.13;;;17.30;99.90;;;;;;4992786;28;20092;-76
2023/06/26 01:33:35;;;;;;;26.20;23.98;;;17.30;99.90;;;;;;4975087;28;20065;-76
2023/06/26 01:36:03;;;;;;;26.95;24.75;;;17.10;99.90;;;;;;4996422;28;20054;-77
2023/06/26 01:38:29;;;;;;;27.65;25.27;;;17.20;99.90;;;;;;4991020;28;20051;-76
2023/06/26 01:40:57;;;;;;;25.90;23.92;;;17.10;99.90;;;;;;4977280;28;20046;-76
2023/06/26 01:43:40;;;;;;;25.77;23.67;;;17.10;99.90;;;;;;4995669;28;20088;-76
2023/06/26 01:46:20;;;;;;;27.27;25.17;;;17.00;99.90;;;;;;4989695;28;20041;-76
2023/06/26 01:49:05;;;;;;;26.52;24.45;;;17.00;99.90;;;;;;4990802;28;20092;-75
2023/06/26 01:51:40;;;;;;;25.83;23.75;;;17.00;99.90;;;;;;4991135;28;20779;-76
2023/06/26 01:54:17;;;;;;;25.55;23.45;;;17.10;99.90;;;;;;4991334;28;20058;-76
2023/06/26 01:56:47;;;;;;;26.83;24.60;;;17.10;99.90;;;;;;4988846;28;20056;-76
2023/06/26 01:59:15;;;;;;;26.40;24.40;;;17.10;99.90;;;;;;4976197;28;20078;-76
2023/06/26 02:01:42;;;;;;;26.75;24.58;;;17.00;99.90;;;;;;4990339;28;20057;-76
2023/06/26 02:04:09;;;;;;;26.05;23.85;;;17.00;99.90;;;;;;4993502;28;20049;-75
2023/06/26 02:06:35;;;;;;;29.17;26.55;;;16.90;99.90;;;;;;4976626;28;20049;-76
2023/06/26 02:09:03;;;;;;;28.38;26.10;;;16.90;99.90;;;;;;4990390;28;20496;-76
2023/06/26 02:11:30;;;;;;;26.40;24.30;;;16.90;99.90;;;;;;4994110;28;20053;-76
2023/06/26 02:13:57;;;;;;;27.70;25.50;;;16.80;99.90;;;;;;4992202;28;20891;-76
2023/06/26 02:16:24;;;;;;;26.10;24.15;;;16.90;99.90;;;;;;4975978;28;20056;-76
2023/06/26 02:18:52;;;;;;;27.63;25.42;;;16.90;99.90;;;;;;5006185;28;20045;-76
2023/06/26 02:21:22;;;;;;;28.83;26.23;;;16.90;99.90;;;;;;4989323;28;20069;-75
2023/06/26 02:23:49;;;;;;;28.25;26.05;;;16.90;99.90;;;;;;4988377;28;20045;-76
2023/06/26 02:26:16;;;;;;;28.40;26.20;;;16.80;99.90;;;;;;4991699;28;20167;-76
2023/06/26 02:28:42;;;;;;;28.50;26.20;;;16.80;99.90;;;;;;4990096;28;20030;-76
2023/06/26 02:31:11;;;;;;;28.77;26.38;;;16.80;99.90;;;;;;4992018;28;20038;-76
2023/06/26 02:33:39;;;;;;;29.55;27.23;;;16.70;99.90;;;;;;4992185;28;20061;-77
2023/06/26 02:36:06;;;;;;;29.48;27.10;;;16.80;99.90;;;;;;4991308;28;20127;-76
2023/06/26 02:38:33;;;;;;;27.95;25.58;;;16.70;99.90;;;;;;4990412;28;20082;-76
2023/06/26 02:41:01;;;;;;;30.05;27.67;;;16.60;99.90;;;;;;4990473;28;20052;-76
2023/06/26 02:43:28;;;;;;;29.77;27.48;;;16.70;99.90;;;;;;4992188;28;20104;-76
2023/06/26 02:45:55;;;;;;;29.15;26.85;;;16.70;99.90;;;;;;4993942;28;20030;-76
2023/06/26 02:48:22;;;;;;;27.80;25.60;;;16.60;99.90;;;;;;4990983;28;20049;-76
2023/06/26 02:50:49;;;;;;;28.65;26.35;;;16.70;99.90;;;;;;4989573;28;20049;-76
2023/06/26 02:53:16;;;;;;;27.48;25.27;;;16.70;99.90;;;;;;4978037;28;20038;-76
2023/06/26 02:55:47;;;;;;;29.15;26.73;;;16.60;99.90;;;;;;4991938;28;20061;-76
2023/06/26 02:58:14;;;;;;;29.70;27.40;;;16.60;99.90;;;;;;4990426;28;20073;-77
2023/06/26 03:00:42;;;;;;;30.23;27.52;;;16.50;99.90;;;;;;4991811;28;20046;-76
2023/06/26 03:03:14;;;;;;;27.60;25.48;;;16.50;99.90;;;;;;4978506;28;20046;-76
2023/06/26 03:05:41;;;;;;;28.55;26.25;;;16.40;99.90;;;;;;4987911;28;20057;-77
2023/06/26 03:08:07;;;;;;;28.50;26.27;;;16.50;99.90;;;;;;4991052;28;20050;-76
2023/06/26 03:10:34;;;;;;;29.98;27.55;;;16.60;99.90;;;;;;4975140;28;21063;-76
2023/06/26 03:13:01;;;;;;;30.50;27.60;;;16.50;99.90;;;;;;5005484;28;20076;-76
2023/06/26 03:15:28;;;;;;;27.88;25.70;;;16.50;99.90;;;;;;4996868;28;20057;-76
2023/06/26 03:17:55;;;;;;;28.58;26.17;;;16.50;99.90;;;;;;4992661;28;20538;-76
2023/06/26 03:20:25;;;;;;;29.15;26.60;;;16.50;99.90;;;;;;4980493;28;20050;-76
2023/06/26 03:22:53;;;;;;;29.52;26.88;;;16.50;99.90;;;;;;4990544;28;20129;-76
2023/06/26 03:25:21;;;;;;;28.63;26.33;;;16.60;99.90;;;;;;4991958;28;20046;-76
2023/06/26 03:27:52;;;;;;;27.48;25.20;;;16.60;99.90;;;;;;4978493;28;20443;-75
2023/06/26 03:30:19;;;;;;;28.17;25.88;;;16.70;99.90;;;;;;4981008;28;20042;-76
2023/06/26 03:32:49;;;;;;;28.45;26.17;;;16.70;99.90;;;;;;4996217;28;20092;-76
2023/06/26 03:35:17;;;;;;;28.30;26.00;;;16.80;99.90;;;;;;4981444;28;20107;-76
2023/06/26 03:37:44;;;;;;;28.52;26.13;;;16.90;99.90;;;;;;4991991;28;20046;-76
2023/06/26 03:40:11;;;;;;;28.98;26.38;;;16.90;99.90;;;;;;4996941;28;20052;-77
2023/06/26 03:42:38;;;;;;;27.92;25.63;;;16.90;99.90;;;;;;4991527;28;20482;-75
2023/06/26 03:45:05;;;;;;;29.25;26.95;;;16.90;99.90;;;;;;4993740;28;20690;-76
2023/06/26 03:47:33;;;;;;;28.70;26.38;;;17.00;99.90;;;;;;4993034;28;20134;-76
2023/06/26 03:50:05;;;;;;;28.52;26.20;;;17.00;99.90;;;;;;4992411;28;20049;-76
2023/06/26 03:52:32;;;;;;;28.30;26.05;;;17.00;99.90;;;;;;4993854;28;20067;-76
2023/06/26 03:54:59;;;;;;;28.05;25.80;;;17.00;99.90;;;;;;4991959;28;20046;-76
2023/06/26 03:57:26;;;;;;;27.80;25.60;;;17.00;99.90;;;;;;4994510;28;20042;-76
2023/06/26 03:59:53;;;;;;;27.92;25.73;;;17.10;99.90;;;;;;4976854;28;20962;-76
2023/06/26 04:02:21;;;;;;;26.27;24.25;;;17.10;99.90;;;;;;4972684;28;20409;-76
2023/06/26 04:04:48;;;;;;;27.95;25.58;;;17.10;99.90;;;;;;4992600;28;20721;-76
2023/06/26 04:07:15;;;;;;;27.83;25.50;;;17.10;99.90;;;;;;4980870;28;20092;-76
2023/06/26 04:09:42;;;;;;;27.98;25.60;;;17.00;99.90;;;;;;4993991;28;20050;-76
2023/06/26 04:12:09;;;;;;;27.95;25.55;;;17.10;99.90;;;;;;4992703;28;20104;-76
2023/06/26 04:14:36;;;;;;;27.60;25.60;;;17.20;99.90;;;;;;4992097;28;20052;-75
2023/06/26 04:17:03;;;;;;;28.10;25.90;;;17.20;99.90;;;;;;4975073;28;20044;-76
2023/06/26 04:19:30;;;;;;;28.83;26.42;;;17.20;99.90;;;;;;4989213;28;20468;-76
2023/06/26 04:21:57;;;;;;;26.88;24.80;;;17.40;99.90;;;;;;4993564;28;20041;-76
2023/06/26 04:24:25;;;;;;;28.02;25.88;;;17.50;99.90;;;;;;4990015;28;20088;-76
2023/06/26 04:26:51;;;;;;;30.67;27.98;;;17.60;99.90;;;;;;4988445;28;20038;-76
2023/06/26 04:29:18;;;;;;;29.20;26.88;;;17.60;99.90;;;;;;4992259;28;20403;-76
2023/06/26 04:31:46;;;;;;;28.02;25.83;;;17.80;99.90;;;;;;4988274;28;20061;-76
2023/06/26 04:34:13;;;;;;;27.13;24.90;;;18.00;99.90;;;;;;4991479;28;20049;-75
2023/06/26 04:36:40;;;;;;;28.58;26.30;;;18.30;99.90;;;;;;4994728;28;20100;-76
2023/06/26 04:39:07;;;;;;;29.83;27.33;;;18.80;99.90;;;;;;4990090;28;20845;-76
2023/06/26 04:41:34;;;;;;;29.92;27.80;;;19.20;99.90;;;;;;4990386;28;20046;-76
2023/06/26 04:44:01;;;;;;;30.20;28.00;;;19.70;99.90;;;;;;4990709;28;20115;-76
2023/06/26 04:46:28;;;;;;;31.50;29.25;;;20.20;99.90;;;;;;4975922;28;20094;-77
2023/06/26 04:48:57;;;;;;;30.65;28.35;;;20.50;99.90;;;;;;4978316;28;20052;-76
2023/06/26 04:51:26;;;;;;;31.20;29.10;;;20.80;99.90;;;;;;4991081;28;20416;-77
2023/06/26 04:53:53;;;;;;;29.90;27.63;;;20.90;99.90;;;;;;4995006;28;20048;-77
2023/06/26 04:56:20;;;;;;;30.40;27.83;;;21.00;99.90;;;;;;4992468;28;20420;-76
2023/06/26 04:58:47;;;;;;;31.30;29.10;;;20.80;99.90;;;;;;4992393;28;20227;-77
2023/06/26 05:01:14;;;;;;;31.17;28.80;;;20.90;99.90;;;;;;4990968;28;20096;-76
2023/06/26 05:03:41;;;;;;;31.92;29.73;;;20.90;99.90;;;;;;4989076;28;20057;-76
2023/06/26 05:06:08;;;;;;;31.15;28.92;;;20.90;99.90;;;;;;4991630;28;20092;-76
2023/06/26 05:08:36;;;;;;;32.60;30.05;;;20.80;99.90;;;;;;4995433;28;20100;-77
2023/06/26 05:11:02;;;;;;;33.47;30.73;;;20.70;99.90;;;;;;4989683;28;20061;-76
2023/06/26 05:13:30;;;;;;;32.80;30.33;;;20.80;99.90;;;;;;4994526;28;20077;-76
2023/06/26 05:15:56;;;;;;;32.22;29.92;;;20.70;99.90;;;;;;4974281;28;20103;-76
2023/06/26 05:18:24;;;;;;;31.42;28.98;;;20.80;99.90;;;;;;4992629;28;20046;-76
2023/06/26 05:20:51;;;;;;;31.73;29.48;;;21.10;99.90;;;;;;4995066;28;20064;-76
2023/06/26 05:23:19;;;;;;;32.30;29.98;;;21.40;99.90;;;;;;4978701;28;20116;-76
2023/06/26 05:25:46;;;;;;;31.88;29.25;;;21.70;99.90;;;;;;5002668;28;20038;-77
2023/06/26 05:28:15;;;;;;;32.47;30.23;;;21.90;99.90;;;;;;5005290;28;20073;-75
2023/06/26 05:30:42;;;;;;;31.50;29.17;;;22.30;99.90;;;;;;5010435;28;20049;-76
2023/06/26 05:33:11;;;;;;;31.85;29.50;;;22.60;99.90;;;;;;4999681;28;20113;-77
2023/06/26 05:35:39;;;;;;;31.48;29.10;;;22.80;99.90;;;;;;4989490;28;20049;-76
2023/06/26 05:38:06;;;;;;;31.20;28.80;;;23.10;99.90;;;;;;4969593;28;20103;-76
2023/06/26 05:40:34;;;;;;;31.77;29.48;;;23.40;99.90;;;;;;4993904;28;20108;-77
2023/06/26 05:43:01;;;;;;;32.28;29.77;;;23.80;99.90;;;;;;4972426;28;20054;-76
2023/06/26 05:45:29;;;;;;;32.95;30.50;;;24.00;99.90;;;;;;4992060;28;20038;-77
2023/06/26 05:47:55;;;;;;;31.95;29.63;;;24.20;99.90;;;;;;4993619;28;20041;-76
2023/06/26 05:50:23;;;;;;;33.45;30.85;;;24.40;99.90;;;;;;4975878;28;20044;-76
2023/06/26 05:52:50;;;;;;;31.98;29.58;;;24.60;99.90;;;;;;4992996;28;20046;-77
2023/06/26 05:55:17;;;;;;;32.22;29.83;;;24.70;99.90;;;;;;4990886;28;20074;-76
2023/06/26 05:57:45;;;;;;;31.52;29.23;;;24.90;99.90;;;;;;4991185;28;20050;-76
2023/06/26 06:00:13;;;;;;;32.55;30.25;;;25.30;99.90;;;;;;4991978;28;20065;-76
2023/06/26 06:02:42;;;;;;;32.15;29.85;;;25.70;99.90;;;;;;4996701;28;20073;-77
2023/06/26 06:05:10;;;;;;;32.08;29.77;;;25.80;99.90;;;;;;4985858;28;20044;-77
2023/06/26 06:07:36;;;;;;;34.15;31.65;;;25.90;99.90;;;;;;4988775;28;20066;-76
2023/06/26 06:10:04;;;;;;;33.72;31.13;;;26.30;99.90;;;;;;4987806;28;20048;-77
2023/06/26 06:12:31;;;;;;;34.67;32.05;;;26.50;99.90;;;;;;4974353;28;20520;-76
2023/06/26 06:14:58;;;;;;;34.05;31.75;;;26.80;99.90;;;;;;4996771;28;20099;-77
2023/06/26 06:17:25;;;;;;;35.30;32.80;;;27.00;99.90;;;;;;4989173;28;20065;-77
2023/06/26 06:19:52;;;;;;;35.78;33.17;;;27.00;99.90;;;;;;4973707;28;20056;-77
2023/06/26 06:22:18;;;;;;;34.80;32.30;;;27.20;99.90;;;;;;4997069;28;20481;-77
2023/06/26 06:24:46;;;;;;;35.38;32.55;;;27.00;99.90;;;;;;4991824;28;20047;-77
2023/06/26 06:27:13;;;;;;;35.55;33.05;;;27.20;99.90;;;;;;4990828;28;20064;-77
2023/06/26 06:29:40;;;;;;;35.63;33.13;;;26.90;99.90;;;;;;4989049;28;20405;-77
2023/06/26 06:32:07;;;;;;;34.95;32.58;;;26.80;99.90;;;;;;4989977;28;20127;-77
2023/06/26 06:34:34;;;;;;;36.05;33.55;;;26.90;99.90;;;;;;4988801;28;20104;-77
2023/06/26 06:37:02;;;;;;;37.60;35.10;;;26.60;99.90;;;;;;4991734;28;20072;-77
2023/06/26 06:39:29;;;;;;;37.40;34.85;;;26.30;99.90;;;;;;4991912;28;20430;-76
2023/06/26 06:41:56;;;;;;;38.13;35.63;;;26.40;99.90;;;;;;4987307;28;20042;-77
2023/06/26 06:44:22;;;;;;;38.75;35.80;;;26.20;99.90;;;;;;4993208;28;20524;-77
2023/06/26 06:46:49;;;;;;;37.35;34.80;;;26.20;99.90;;;;;;4990059;28;20050;-77
2023/06/26 06:49:16;;;;;;;38.75;36.10;;;26.30;99.90;;;;;;4991673;28;20512;-77
2023/06/26 06:51:42;;;;;;;37.63;35.03;;;26.30;99.90;;;;;;4980084;28;20547;-76
2023/06/26 06:54:09;;;;;;;37.75;35.25;;;26.40;99.90;;;;;;4994976;28;20053;-78
2023/06/26 06:56:36;;;;;;;37.60;35.10;;;26.30;99.90;;;;;;4991016;28;20042;-77
2023/06/26 06:59:03;;;;;;;39.03;36.42;;;26.00;99.90;;;;;;4996990;28;20049;-76
2023/06/26 07:01:30;;;;;;;37.28;34.97;;;26.10;99.90;;;;;;4995084;28;20112;-77
2023/06/26 07:03:57;;;;;;;37.72;34.92;;;26.00;99.90;;;;;;4993799;28;20030;-77
2023/06/26 07:06:24;;;;;;;38.22;35.38;;;26.00;99.90;;;;;;4997787;28;20096;-77
2023/06/26 07:08:51;;;;;;;36.92;34.42;;;26.10;99.90;;;;;;4996771;28;20562;-77
2023/06/26 07:11:18;;;;;;;38.95;36.13;;;26.30;99.90;;;;;;4995270;28;20169;-77
2023/06/26 07:13:45;;;;;;;38.78;35.78;;;26.30;99.90;;;;;;4994993;28;20034;-77
2023/06/26 07:16:11;;;;;;;39.22;36.53;;;26.10;99.90;;;;;;4995886;28;20496;-77
2023/06/26 07:18:38;;;;;;;38.67;36.08;;;25.90;99.90;;;;;;4993299;28;20072;-76
2023/06/26 07:21:05;;;;;;;37.65;35.20;;;25.70;99.90;;;;;;4991513;28;20056;-76
2023/06/26 07:23:32;;;;;;;38.83;36.13;;;25.70;99.90;;;;;;4974145;28;20042;-77
2023/06/26 07:25:59;;;;;;;37.55;34.92;;;25.80;99.90;;;;;;5008917;28;20129;-77
2023/06/26 07:28:26;;;;;;;39.22;36.70;;;25.70;99.90;;;;;;4998104;28;20074;-76
2023/06/26 07:30:52;;;;;;;39.45;36.90;;;25.70;99.90;;;;;;4996827;28;20100;-76
2023/06/26 07:33:20;;;;;;;39.95;36.90;;;25.60;99.90;;;;;;4995698;28;20050;-76
2023/06/26 07:35:47;;;;;;;40.63;37.63;;;25.60;99.90;;;;;;4997426;28;20431;-76
2023/06/26 07:38:14;;;;;;;40.50;37.75;;;25.50;99.90;;;;;;4980675;28;20847;-77
2023/06/26 07:40:40;;;;;;;40.33;37.53;;;25.60;99.90;;;;;;4998204;28;20038;-77
2023/06/26 07:43:07;;;;;;;39.85;37.05;;;25.40;99.90;;;;;;4999323;28;20064;-76
2023/06/26 07:45:34;;;;;;;42.42;39.17;;;25.50;99.90;;;;;;4995435;28;20044;-77
2023/06/26 07:48:01;;;;;;;40.05;37.05;;;25.40;99.90;;;;;;4983753;28;20049;-77
2023/06/26 07:50:28;;;;;;;38.75;36.20;;;25.20;99.90;;;;;;4996245;28;20046;-77
2023/06/26 07:52:55;;;;;;;42.15;39.03;;;25.10;99.90;;;;;;4997971;28;20483;-77
2023/06/26 07:55:22;;;;;;;42.13;39.08;;;25.10;99.90;;;;;;4998943;28;20481;-76
2023/06/26 07:57:51;;;;;;;41.35;38.25;;;25.00;99.90;;;;;;4993552;28;20076;-76
2023/06/26 08:00:18;;;;;;;41.58;38.63;;;24.90;99.90;;;;;;4997288;28;20058;-77
2023/06/26 08:02:45;;;;;;;41.28;38.42;;;25.00;99.90;;;;;;4999996;28;20053;-77
2023/06/26 08:05:12;;;;;;;41.63;38.70;;;24.70;99.90;;;;;;4997792;28;20682;-77
2023/06/26 08:07:39;;;;;;;40.42;37.35;;;24.80;99.90;;;;;;4995494;28;20054;-76
2023/06/26 08:10:06;;;;;;;41.33;38.53;;;25.00;99.90;;;;;;5000859;28;20042;-76
2023/06/26 08:12:33;;;;;;;41.80;38.90;;;25.00;99.90;;;;;;5005521;28;20046;-76
2023/06/26 08:15:02;;;;;;;41.00;38.05;;;25.40;99.90;;;;;;5000674;28;20136;-77
2023/06/26 08:17:29;;;;;;;39.60;36.58;;;25.70;99.90;;;;;;5001708;28;20594;-76
2023/06/26 08:19:56;;;;;;;38.33;35.53;;;25.40;99.90;;;;;;5000496;28;20135;-77
2023/06/26 08:22:23;;;;;;;40.80;37.70;;;25.00;99.90;;;;;;4997821;28;20704;-77
2023/06/26 08:24:50;;;;;;;43.45;40.30;;;24.90;99.90;;;;;;4979593;28;20077;-77
2023/06/26 08:27:17;;;;;;;37.72;34.88;;;24.80;99.90;;;;;;4998058;28;20042;-77
2023/06/26 08:29:43;;;;;;;38.55;35.47;;;24.90;99.90;;;;;;4978669;28;20078;-76
2023/06/26 08:32:10;;;;;;;38.83;35.50;;;24.50;99.90;;;;;;4993703;28;20104;-76
2023/06/26 08:34:37;;;;;;;39.28;36.47;;;24.10;99.90;;;;;;4993245;28;20095;-77
2023/06/26 08:37:04;;;;;;;39.15;36.25;;;23.90;99.90;;;;;;4996058;28;20046;-77
2023/06/26 08:39:32;;;;;;;41.10;38.00;;;23.70;99.90;;;;;;4995710;28;20054;-76
2023/06/26 08:41:59;;;;;;;42.53;39.42;;;23.70;99.90;;;;;;4997865;28;20050;-76
2023/06/26 08:44:26;;;;;;;40.85;37.80;;;23.80;99.90;;;;;;4977884;28;20046;-77
2023/06/26 08:46:53;;;;;;;42.47;39.42;;;24.10;99.90;;;;;;4993017;28;20611;-77
2023/06/26 08:49:45;;;;;;;43.92;40.42;;;24.30;99.90;;;;;;4996487;28;20111;-77
2023/06/26 08:52:22;;;;;;;40.47;37.42;;;24.20;99.90;;;;;;4993030;28;20074;-76
2023/06/26 08:54:56;;;;;;;39.63;36.42;;;24.00;99.90;;;;;;4994173;28;20654;-77
2023/06/26 08:57:23;;;;;;;40.65;37.53;;;23.70;99.90;;;;;;4996283;28;20056;-77
2023/06/26 08:59:51;;;;;;;42.50;39.30;;;23.50;99.90;;;;;;4991295;28;20043;-76
2023/06/26 09:02:20;;;;;;;43.67;40.03;;;23.50;99.90;;;;;;4997597;28;20519;-76
2023/06/26 09:04:49;;;;;;;41.35;38.15;;;23.30;99.90;;;;;;4997043;28;20045;-76
2023/06/26 09:07:16;;;;;;;40.70;37.53;;;23.20;99.90;;;;;;4994341;28;20037;-76
2023/06/26 09:09:44;;;;;;;41.75;37.97;;;23.00;99.90;;;;;;4997853;28;20045;-76
2023/06/26 09:12:11;;;;;;;44.53;40.90;;;22.80;99.90;;;;;;4996332;28;20480;-76
2023/06/26 09:14:38;;;;;;;45.03;41.28;;;23.00;99.90;;;;;;4991578;28;20097;-76
2023/06/26 09:17:04;;;;;;;43.67;39.92;;;23.30;99.90;;;;;;4991966;28;20495;-77
2023/06/26 09:19:31;;;;;;;42.28;38.70;;;23.70;99.90;;;;;;4992311;28;20069;-77
2023/06/26 09:22:00;;;;;;;40.53;37.03;;;24.20;99.90;;;;;;4975563;28;20276;-77
2023/06/26 09:24:27;;;;;;;41.30;37.80;;;24.30;99.90;;;;;;4977921;28;21080;-76
2023/06/26 09:26:54;;;;;;;40.22;36.80;;;24.00;99.90;;;;;;4992019;28;20451;-77
2023/06/26 09:29:47;;;;;;;42.28;38.80;;;23.70;99.90;;;;;;4995524;28;20492;-77
2023/06/26 09:32:14;;;;;;;41.33;37.58;;;23.50;99.90;;;;;;4993677;28;20505;-76
2023/06/26 09:34:44;;;;;;;43.38;39.75;;;23.30;99.90;;;;;;4992222;28;20038;-76
2023/06/26 09:37:14;;;;;;;46.08;42.33;;;23.30;99.90;;;;;;4995224;28;20099;-76
2023/06/26 09:39:40;;;;;;;45.55;41.47;;;23.10;99.90;;;;;;4989386;28;20053;-77
2023/06/26 09:42:07;;;;;;;45.97;42.30;;;23.50;99.90;;;;;;4976363;28;20049;-76
2023/06/26 09:44:34;;;;;;;41.92;38.75;;;23.80;99.90;;;;;;4994498;28;20984;-77
2023/06/26 09:47:03;;;;;;;40.63;37.40;;;23.70;99.90;;;;;;4994470;28;20041;-76
2023/06/26 09:49:31;;;;;;;44.13;40.50;;;23.60;99.90;;;;;;4991323;28;20041;-77
2023/06/26 09:52:01;;;;;;;45.88;41.90;;;23.30;99.90;;;;;;4978212;28;20050;-77
2023/06/26 09:54:30;;;;;;;42.92;39.83;;;23.30;99.90;;;;;;4992628;28;20132;-77
2023/06/26 09:57:07;;;;;;;44.97;41.17;;;23.70;99.90;;;;;;4989600;28;20072;-76
2023/06/26 09:59:36;;;;;;;44.10;40.55;;;24.20;99.90;;;;;;4992017;28;20152;-77
2023/06/26 10:02:03;;;;;;;44.95;41.25;;;24.40;99.90;;;;;;4973681;28;20672;-77
2023/06/26 10:04:30;;;;;;;46.17;42.38;;;24.30;99.90;;;;;;4993165;28;20042;-76
2023/06/26 10:07:04;;;;;;;43.70;40.17;;;24.30;99.90;;;;;;4994554;28;20046;-76
2023/06/26 10:09:31;;;;;;;43.42;39.80;;;24.30;99.90;;;;;;4992798;28;20545;-77
2023/06/26 10:12:07;;;;;;;47.33;43.28;;;24.10;99.90;;;;;;4992129;28;20038;-77
2023/06/26 10:14:36;;;;;;;45.28;41.88;;;24.20;99.90;;;;;;4991762;28;20045;-76
2023/06/26 10:17:14;;;;;;;44.97;41.00;;;24.20;99.90;;;;;;4988665;28;20041;-77
2023/06/26 10:19:44;;;;;;;45.70;42.15;;;24.10;99.90;;;;;;4975230;28;20146;-77
2023/06/26 10:22:18;;;;;;;43.80;40.28;;;24.00;99.90;;;;;;4976705;28;20050;-76
2023/06/26 10:24:48;;;;;;;46.75;42.67;;;23.90;99.90;;;;;;4989697;28;20046;-76
2023/06/26 10:27:18;;;;;;;43.92;40.03;;;23.70;99.90;;;;;;4991140;28;20124;-76
2023/06/26 10:29:50;;;;;;;45.10;41.28;;;23.60;99.90;;;;;;4995385;28;20066;-76
2023/06/26 10:32:20;;;;;;;42.60;38.95;;;23.50;99.90;;;;;;4996504;28;20396;-76
2023/06/26 10:34:47;;;;;;;45.10;41.65;;;23.30;99.90;;;;;;4997315;28;20052;-76
2023/06/26 10:37:14;;;;;;;41.47;38.28;;;23.50;99.90;;;;;;4992310;28;20524;-76
2023/06/26 10:39:52;;;;;;;40.47;37.25;;;23.70;99.90;;;;;;4993267;28;20745;-77
2023/06/26 10:42:21;;;;;;;40.28;37.08;;;23.90;99.90;;;;;;4993464;28;20058;-76
2023/06/26 10:44:48;;;;;;;40.72;37.35;;;23.90;99.90;;;;;;4978033;28;20704;-76
2023/06/26 10:47:31;;;;;;;41.03;37.30;;;23.80;99.90;;;;;;4976312;28;20127;-76
2023/06/26 10:50:18;;;;;;;39.42;36.42;;;23.30;99.90;;;;;;4990698;28;20124;-76
2023/06/26 10:53:08;;;;;;;40.80;37.60;;;23.20;99.90;;;;;;4988635;28;20727;-76
2023/06/26 10:55:35;;;;;;;39.63;36.30;;;23.20;99.90;;;;;;4989193;28;20734;-76
2023/06/26 10:58:02;;;;;;;40.97;37.67;;;23.20;99.90;;;;;;4992879;28;20050;-77
2023/06/26 11:00:29;;;;;;;41.67;38.42;;;23.30;99.90;;;;;;4992220;28;25262;-76
2023/06/26 11:02:56;;;;;;;41.17;37.47;;;23.50;99.90;;;;;;4992734;28;20030;-76
2023/06/26 11:05:26;;;;;;;41.13;37.90;;;24.00;99.90;;;;;;4992966;28;20162;-76
2023/06/26 11:08:07;;;;;;;36.63;33.88;;;24.50;99.90;;;;;;4974802;28;20049;-77
2023/06/26 11:10:59;;;;;;;40.35;37.00;;;24.70;99.90;;;;;;4990141;28;21675;-77
2023/06/26 11:13:27;;;;;;;41.90;38.17;;;24.60;99.90;;;;;;4990206;28;20128;-77
2023/06/26 11:15:56;;;;;;;37.40;34.25;;;24.90;99.90;;;;;;4992040;28;20042;-76
2023/06/26 11:18:24;;;;;;;37.30;34.13;;;25.10;99.90;;;;;;4992179;28;20042;-75
2023/06/26 11:20:51;;;;;;;38.45;35.40;;;25.20;99.90;;;;;;4996511;28;20070;-75
2023/06/26 11:23:24;;;;;;;38.35;35.65;;;25.10;99.90;;;;;;4993384;28;20050;-75
2023/06/26 11:25:51;;;;;;;36.47;33.78;;;25.00;99.90;;;;;;4989708;28;20058;-75
2023/06/26 11:28:18;;;;;;;37.75;34.95;;;24.80;99.90;;;;;;4995677;28;20545;-76
2023/06/26 11:30:44;;;;;;;38.58;35.45;;;24.70;99.90;;;;;;4988871;28;20575;-76
2023/06/26 11:33:12;;;;;;;38.83;36.05;;;24.60;99.90;;;;;;4973390;28;20077;-76
2023/06/26 11:35:39;;;;;;;37.53;34.92;;;24.80;99.90;;;;;;4999350;28;20068;-76
2023/06/26 11:38:06;;;;;;;37.50;34.65;;;24.80;99.90;;;;;;4996054;28;20053;-75
2023/06/26 11:40:35;;;;;;;37.70;34.70;;;25.00;99.90;;;;;;4995137;28;20050;-75
2023/06/26 11:43:03;;;;;;;38.33;35.40;;;25.30;99.90;;;;;;4995206;28;20096;-77
2023/06/26 11:45:31;;;;;;;38.83;36.05;;;25.30;99.90;;;;;;4994308;28;20068;-77
2023/06/26 11:47:59;;;;;;;40.40;37.38;;;25.30;99.90;;;;;;5003442;28;20042;-76
2023/06/26 11:50:26;;;;;;;36.45;33.50;;;25.50;99.90;;;;;;4992671;28;20104;-76
2023/06/26 11:52:55;;;;;;;39.42;36.60;;;25.40;99.90;;;;;;4976416;28;20046;-76
2023/06/26 11:55:23;;;;;;;35.05;32.42;;;25.30;99.90;;;;;;4976937;28;20125;-75
2023/06/26 11:57:53;;;;;;;36.85;34.20;;;25.30;99.90;;;;;;4995435;28;20057;-76
2023/06/26 12:00:23;;;;;;;37.90;34.88;;;24.80;99.90;;;;;;4992689;28;20042;-75
2023/06/26 12:02:51;;;;;;;36.38;33.67;;;24.90;99.90;;;;;;4995692;28;20068;-76
2023/06/26 12:05:19;;;;;;;34.58;32.15;;;24.80;99.90;;;;;;4995458;28;20038;-76
2023/06/26 12:07:48;;;;;;;37.33;34.70;;;24.70;99.90;;;;;;4996288;28;20559;-75
2023/06/26 12:10:15;;;;;;;37.20;34.42;;;24.50;99.90;;;;;;4995971;28;20536;-75
2023/06/26 12:12:43;;;;;;;37.38;34.28;;;24.60;99.90;;;;;;4993749;28;20054;-75
2023/06/26 12:15:15;;;;;;;37.90;34.95;;;24.60;99.90;;;;;;4978511;28;20448;-77
2023/06/26 12:17:42;;;;;;;38.33;35.25;;;24.70;99.90;;;;;;4980425;28;20774;-76
2023/06/26 12:20:23;;;;;;;38.38;35.47;;;25.00;99.90;;;;;;4990662;28;20040;-76
2023/06/26 12:22:50;;;;;;;36.67;33.58;;;25.50;99.90;;;;;;4976842;28;20053;-75
2023/06/26 12:25:24;;;;;;;33.78;30.98;;;25.70;99.90;;;;;;4977662;28;20141;-76
2023/06/26 12:27:50;;;;;;;33.33;30.92;;;25.60;99.90;;;;;;4992144;28;20125;-76
2023/06/26 12:30:17;;;;;;;34.70;31.55;;;25.20;99.90;;;;;;4997972;28;20459;-75
2023/06/26 12:32:46;;;;;;;36.05;32.47;;;24.70;99.90;;;;;;4998421;28;20054;-75
2023/06/26 12:35:13;;;;;;;34.42;31.90;;;24.00;99.90;;;;;;4976382;28;20472;-75